Farm Ridge, Illinois
Current Conditions -  °F | °C
As of 4:35 PM on Monday 24 Nov 2014 (Local Time) from KVYS Reporting Station
Light Snow Light Snow  
Wind Chill: 14°   Ceiling: 1400
Heat Index: 29°   Visibility: 3mi
Dew Point: 26°   Wind: 26mph
Humidity: 88%   Direction: 250°WSW
Pressure: 29.68"   Gusts: 39mph
Location:  41.2419°N, 88.7998°W
Report Text: KVYS 242235Z AUTO 25023G34KT 3SM -SN OVC014 M02/M04 A2968 RMK AO2 T10181036
Loading
Personal Weather Stations






























Interactive Weather Map New forecast layout! Learn more

10-Day Weather Forecast

Advertisements
Track Severe Weather on mobile